Time;durP1;ratioP1;P1;durP2;ratioP2;P2;SDS_P1;SDS_P2;PMS_P1;PMS_P2;Temp;Humidity;BMP_temperature;BMP_pressure;BME280_temperature;BME280_humidity;BME280_pressure;Samples;Min_cycle;Max_cycle;Signal;HPM_P1;HPM_P2
2022/06/24 00:01:22;;;;;;;52.45;48.13;;;;;;;18.45;100.00;100864.59;5059318;28;20159;-81
2022/06/24 00:03:58;;;;;;;51.97;47.83;;;;;;;19.03;100.00;100856.75;5066698;28;20045;-81
2022/06/24 00:06:46;;;;;;;53.53;49.33;;;;;;;18.65;100.00;100853.22;5066201;28;20044;-80
2022/06/24 00:09:20;;;;;;;54.58;50.08;;;;;;;17.96;100.00;100859.25;5060509;28;20541;-82
2022/06/24 00:12:13;;;;;;;55.30;51.13;;;;;;;17.88;100.00;100857.00;5063862;28;20049;-81
2022/06/24 00:15:02;;;;;;;76.78;71.40;;;;;;;18.10;100.00;100862.38;5065902;28;20075;-82
2022/06/24 00:17:38;;;;;;;58.05;53.60;;;;;;;18.44;100.00;100867.56;5056088;28;20048;-82
2022/06/24 00:20:17;;;;;;;75.28;69.57;;;;;;;18.58;100.00;100868.78;5060426;28;20131;-82
2022/06/24 00:22:51;;;;;;;54.60;49.75;;;;;;;17.75;100.00;100858.16;5053842;28;20051;-81
2022/06/24 00:25:26;;;;;;;56.72;51.90;;;;;;;17.53;100.00;100873.47;5056085;28;20056;-81
2022/06/24 00:31:07;;;;;;;46.22;42.42;;;;;;;18.19;100.00;100871.59;5043914;28;20068;-84
2022/06/24 00:33:45;;;;;;;48.88;45.03;;;;;;;18.22;100.00;100864.91;5061108;28;20068;-81
2022/06/24 00:36:16;;;;;;;54.95;50.50;;;;;;;18.08;100.00;100864.50;5056723;28;20053;-81
2022/06/24 00:38:58;;;;;;;55.25;50.80;;;;;;;17.97;100.00;100858.22;5057797;28;20076;-80
2022/06/24 00:41:31;;;;;;;61.42;56.28;;;;;;;17.60;100.00;100868.72;5070303;28;20067;-80
2022/06/24 00:44:28;;;;;;;59.15;54.60;;;;;;;17.78;100.00;100873.00;5061380;28;20053;-80
2022/06/24 00:47:05;;;;;;;51.90;47.65;;;;;;;17.32;100.00;100875.88;5064607;28;20055;-81
2022/06/24 00:49:45;;;;;;;59.60;54.70;;;;;;;17.18;100.00;100870.00;5059676;28;20041;-81
2022/06/24 00:52:17;;;;;;;58.30;53.58;;;;;;;17.38;100.00;100872.19;5060487;28;20052;-81
2022/06/24 00:54:48;;;;;;;58.42;53.72;;;;;;;17.06;100.00;100876.53;5061772;28;20048;-81
2022/06/24 00:57:17;;;;;;;59.10;54.42;;;;;;;17.04;100.00;100874.13;5069050;28;20060;-80
2022/06/24 00:59:51;;;;;;;58.95;53.92;;;;;;;16.93;100.00;100877.69;5067106;28;20052;-81
2022/06/24 01:02:21;;;;;;;55.83;51.08;;;;;;;17.24;100.00;100875.47;5059264;28;20048;-82
2022/06/24 01:05:21;;;;;;;62.30;57.33;;;;;;;17.84;100.00;100858.56;5068521;28;20053;-79
2022/06/24 01:07:57;;;;;;;65.40;58.50;;;;;;;17.95;100.00;100856.84;5061584;28;20425;-84
2022/06/24 01:10:31;;;;;;;82.43;76.60;;;;;;;17.00;100.00;100862.22;5060934;28;20382;-82
2022/06/24 01:13:01;;;;;;;60.42;55.40;;;;;;;17.03;100.00;100871.66;5063069;28;20075;-81
2022/06/24 01:15:40;;;;;;;62.13;57.22;;;;;;;17.47;100.00;100855.66;5053890;28;20045;-80
2022/06/24 01:18:09;;;;;;;70.18;64.97;;;;;;;17.28;100.00;100863.19;5062655;28;20056;-83
2022/06/24 01:20:39;;;;;;;98.57;91.57;;;;;;;16.95;100.00;100856.81;5066513;28;20163;-82
2022/06/24 01:23:21;;;;;;;;;;;;;;;;;;;;;
2022/06/24 01:25:50;;;;;;;;;;;;;;;16.78;100.00;100862.16;5062316;28;20051;-82
2022/06/24 01:28:19;;;;;;;52.15;47.95;;;;;;;17.07;100.00;100862.09;5062744;28;19921;-83
2022/06/24 01:30:56;;;;;;;49.40;45.15;;;;;;;17.13;100.00;100863.78;5059755;28;20052;-83
2022/06/24 01:33:28;;;;;;;53.05;48.55;;;;;;;16.88;100.00;100865.03;5066580;28;20114;-83
2022/06/24 01:35:58;;;;;;;53.33;48.45;;;;;;;16.72;100.00;100857.72;5063720;28;20057;-82
2022/06/24 01:38:29;;;;;;;49.38;44.85;;;;;;;16.94;100.00;100860.53;5062536;28;20055;-80
2022/06/24 01:41:14;;;;;;;53.30;48.70;;;;;;;16.47;100.00;100861.59;5062218;28;20049;-81
2022/06/24 01:43:45;;;;;;;64.65;59.25;;;;;;;16.84;100.00;100863.88;5060814;28;20069;-81
2022/06/24 01:46:15;;;;;;;56.38;51.40;;;;;;;17.16;100.00;100857.91;5060085;28;20050;-81
2022/06/24 01:48:50;;;;;;;54.53;49.97;;;;;;;17.13;100.00;100859.22;5055145;28;20041;-80
2022/06/24 01:51:31;;;;;;;57.60;52.70;;;;;;;16.99;100.00;100862.47;5061124;28;20075;-80
2022/06/24 01:54:07;;;;;;;54.13;49.88;;;;;;;17.28;100.00;100860.50;5064386;28;20053;-80
2022/06/24 01:56:35;;;;;;;48.22;44.25;;;;;;;16.73;100.00;100853.97;5075989;28;20045;-82
2022/06/24 01:59:09;;;;;;;48.72;44.70;;;;;;;16.63;100.00;100856.50;5061497;28;20049;-81
2022/06/24 02:01:47;;;;;;;49.88;45.63;;;;;;;16.58;100.00;100872.50;5171996;22;20057;-86
2022/06/24 02:04:15;;;;;;;62.40;57.08;;;;;;;16.96;100.00;100869.16;5029598;28;20049;-80
2022/06/24 02:06:42;;;;;;;60.90;55.83;;;;;;;17.16;100.00;100872.16;5032402;28;20053;-80
2022/06/24 02:09:10;;;;;;;55.47;50.67;;;;;;;16.45;100.00;100865.56;5034587;28;20038;-79
2022/06/24 02:14:23;;;;;;;70.55;65.03;;;;;;;16.69;100.00;100859.03;5034245;28;20496;-81
2022/06/24 02:16:51;;;;;;;63.28;58.08;;;;;;;16.79;100.00;100865.66;5036537;28;20092;-80
2022/06/24 02:19:19;;;;;;;73.65;67.88;;;;;;;17.01;100.00;100873.78;5034212;28;20046;-81
2022/06/24 02:21:46;;;;;;;69.47;63.80;;;;;;;16.82;100.00;100871.31;5036714;28;20067;-82
2022/06/24 02:24:15;;;;;;;74.47;68.88;;;;;;;16.65;100.00;100875.84;5029671;28;20053;-81
2022/06/24 02:26:43;;;;;;;75.85;69.93;;;;;;;16.74;100.00;100868.22;5031704;28;20056;-81
2022/06/24 02:29:12;;;;;;;63.15;58.15;;;;;;;16.76;100.00;100866.13;5034650;28;20045;-82
2022/06/24 02:31:49;;;;;;;56.47;51.15;;;;;;;16.64;100.00;100860.81;5024372;28;20041;-81
2022/06/24 02:34:16;;;;;;;61.97;56.78;;;;;;;16.71;100.00;100861.47;5039693;28;20053;-83
2022/06/24 02:36:50;;;;;;;50.85;46.67;;;;;;;16.54;100.00;100860.63;5037796;28;20049;-82
2022/06/24 02:39:19;;;;;;;56.05;51.55;;;;;;;16.27;100.00;100861.22;5041426;28;20050;-80
2022/06/24 02:41:46;;;;;;;52.60;48.22;;;;;;;16.65;100.00;100855.22;5020995;28;20064;-82
2022/06/24 02:44:14;;;;;;;50.65;46.38;;;;;;;16.59;100.00;100858.88;5038866;28;20409;-83
2022/06/24 02:46:42;;;;;;;55.60;51.00;;;;;;;16.22;100.00;100861.16;5038663;28;20053;-82
2022/06/24 02:49:10;;;;;;;52.78;47.90;;;;;;;15.89;100.00;100849.28;5037396;28;20115;-82
2022/06/24 02:51:40;;;;;;;53.28;48.78;;;;;;;16.11;100.00;100854.78;5021173;28;20477;-82
2022/06/24 02:54:07;;;;;;;53.13;48.90;;;;;;;15.81;100.00;100852.31;5035629;28;20119;-82
2022/06/24 02:56:35;;;;;;;50.45;46.63;;;;;;;15.68;100.00;100857.94;5040351;28;20111;-81
2022/06/24 02:59:03;;;;;;;52.45;48.25;;;;;;;16.16;100.00;100854.88;5040760;28;20056;-81
2022/06/24 03:01:30;;;;;;;47.83;43.70;;;;;;;16.36;100.00;100867.03;5037673;28;20057;-81
2022/06/24 03:04:04;;;;;;;45.53;41.13;;;;;;;16.35;100.00;100860.03;5037029;28;20053;-83
2022/06/24 03:06:38;;;;;;;45.08;41.40;;;;;;;16.55;100.00;100865.78;5024420;28;20050;-82
2022/06/24 03:09:10;;;;;;;43.47;40.20;;;;;;;16.60;100.00;100863.16;5038006;28;20045;-83
2022/06/24 03:11:52;;;;;;;47.35;43.50;;;;;;;16.68;100.00;100862.78;5027379;28;20478;-83
2022/06/24 03:14:44;;;;;;;45.03;41.40;;;;;;;16.84;100.00;100868.41;5037758;28;20053;-83
2022/06/24 03:17:26;;;;;;;46.75;42.90;;;;;;;16.93;100.00;100870.44;5018774;28;20057;-83
2022/06/24 03:20:02;;;;;;;45.65;42.20;;;;;;;16.78;100.00;100862.16;5028850;28;20046;-83
2022/06/24 03:22:39;;;;;;;47.00;43.40;;;;;;;16.80;100.00;100867.28;5027490;28;20052;-81
2022/06/24 03:25:11;;;;;;;48.88;45.03;;;;;;;16.91;100.00;100872.56;5020531;28;20053;-82
2022/06/24 03:27:42;;;;;;;52.00;48.10;;;;;;;17.32;100.00;100864.31;5024669;28;20045;-82
2022/06/24 03:30:10;;;;;;;48.58;44.97;;;;;;;17.64;100.00;100864.50;5025985;28;20041;-83
2022/06/24 03:32:41;;;;;;;48.40;44.70;;;;;;;17.71;100.00;100862.41;5025539;28;20132;-83
2022/06/24 03:35:14;;;;;;;44.28;41.08;;;;;;;17.90;100.00;100859.44;5022581;28;20041;-84
2022/06/24 03:37:56;;;;;;;44.47;41.08;;;;;;;18.15;100.00;100864.28;5033475;28;20485;-83
2022/06/24 03:40:30;;;;;;;46.40;42.90;;;;;;;17.96;100.00;100861.94;5026955;28;20049;-83
2022/06/24 03:43:08;;;;;;;46.60;43.05;;;;;;;18.14;100.00;100865.38;5036503;28;20049;-83
2022/06/24 03:45:35;;;;;;;46.97;43.47;;;;;;;18.47;100.00;100872.41;5027340;28;20046;-83
2022/06/24 03:48:22;;;;;;;42.83;39.42;;;;;;;18.63;100.00;100865.28;5038036;28;20045;-83
2022/06/24 03:51:04;;;;;;;43.28;39.88;;;;;;;18.39;100.00;100864.81;5034469;28;20045;-83
2022/06/24 03:53:43;;;;;;;45.53;42.22;;;;;;;18.68;100.00;100874.22;5026551;28;20402;-82
2022/06/24 03:56:29;;;;;;;40.95;37.97;;;;;;;18.80;100.00;100874.09;5026130;28;20072;-82
2022/06/24 03:59:00;;;;;;;42.67;39.25;;;;;;;18.89;100.00;100871.75;5036757;28;20076;-83
2022/06/24 04:01:29;;;;;;;42.33;38.92;;;;;;;19.03;100.00;100872.09;5037103;28;20072;-83
2022/06/24 04:04:09;;;;;;;42.30;38.85;;;;;;;18.87;100.00;100865.78;5026197;28;20485;-83
2022/06/24 04:06:35;;;;;;;40.85;37.85;;;;;;;18.91;100.00;100875.81;5031022;28;20054;-83
2022/06/24 04:09:09;;;;;;;49.38;44.15;;;;;;;19.22;100.00;100876.00;5034283;28;20173;-82
2022/06/24 04:11:42;;;;;;;54.78;49.00;;;;;;;19.15;100.00;100859.25;5037075;28;20060;-83
2022/06/24 04:17:35;;;;;;;40.78;37.78;;;;;;;19.06;100.00;100874.28;5038398;28;20118;-83
2022/06/24 04:20:11;;;;;;;40.70;37.60;;;;;;;19.15;100.00;100873.56;5043728;28;20052;-85
2022/06/24 04:22:51;;;;;;;40.67;37.67;;;;;;;19.29;100.00;100879.28;5037206;28;20042;-82
2022/06/24 04:25:29;;;;;;;39.30;36.40;;;;;;;19.49;100.00;100875.91;5041930;28;20075;-82
2022/06/24 04:31:02;;;;;;;39.50;36.28;;;;;;;19.51;100.00;100886.41;5017648;28;20053;-84
2022/06/24 04:33:35;;;;;;;38.58;35.60;;;;;;;19.60;100.00;100888.34;5032975;28;20046;-84
2022/06/24 04:36:14;;;;;;;38.20;35.10;;;;;;;19.66;100.00;100884.63;5044664;28;20097;-83
2022/06/24 04:38:46;;;;;;;43.40;40.20;;;;;;;19.83;100.00;100887.13;5036067;28;20029;-84
2022/06/24 04:41:21;;;;;;;44.70;41.40;;;;;;;19.71;100.00;100886.53;5033503;28;20101;-84
2022/06/24 04:44:08;;;;;;;41.38;38.47;;;;;;;19.79;100.00;100883.34;5042226;28;20072;-84
2022/06/24 04:46:46;;;;;;;42.83;39.80;;;;;;;19.97;100.00;100887.47;5043536;28;20387;-84
2022/06/24 04:49:22;;;;;;;44.35;41.05;;;;;;;19.93;100.00;100893.63;5037759;28;20080;-83
2022/06/24 04:51:52;;;;;;;46.22;42.95;;;;;;;20.22;100.00;100891.31;5036459;28;20124;-82
2022/06/24 04:54:20;;;;;;;41.70;38.55;;;;;;;20.41;100.00;100887.03;5037406;28;20110;-83
2022/06/24 04:57:03;;;;;;;;;;;;;;;;;;;;;
2022/06/24 04:59:39;;;;;;;41.47;38.22;;;;;;;20.45;100.00;100884.59;5037075;28;20037;-84
2022/06/24 05:02:25;;;;;;;39.83;36.78;;;;;;;20.83;100.00;100894.13;5043193;28;20054;-82
2022/06/24 05:04:54;;;;;;;39.45;36.55;;;;;;;20.75;100.00;100900.03;5042099;28;20049;-83
2022/06/24 05:10:19;;;;;;;38.42;35.63;;;;;;;21.05;100.00;100891.94;5046841;28;20054;-84
2022/06/24 05:12:50;;;;;;;38.65;35.35;;;;;;;21.26;100.00;100908.13;5033746;28;20486;-84
2022/06/24 05:15:40;;;;;;;38.38;35.55;;;;;;;21.40;100.00;100903.00;5034873;28;20049;-84
2022/06/24 05:18:23;;;;;;;35.13;32.63;;;;;;;21.68;100.00;100904.28;5050203;28;20652;-84
2022/06/24 05:20:56;;;;;;;35.80;33.22;;;;;;;21.73;100.00;100898.88;5037143;28;20121;-84
2022/06/24 05:23:32;;;;;;;35.58;33.00;;;;;;;21.89;100.00;100900.41;5040175;28;20046;-82
2022/06/24 05:26:02;;;;;;;35.70;32.72;;;;;;;21.96;100.00;100900.91;5032686;28;20474;-83
2022/06/24 05:28:30;;;;;;;38.58;35.70;;;;;;;22.16;100.00;100904.63;5033015;28;20085;-83
2022/06/24 05:31:03;;;;;;;35.28;32.75;;;;;;;22.47;100.00;100907.16;5030460;28;20405;-82
2022/06/24 05:33:40;;;;;;;34.30;31.85;;;;;;;22.45;100.00;100910.16;5029597;28;20045;-83
2022/06/24 05:36:16;;;;;;;33.45;31.00;;;;;;;22.69;100.00;100915.66;5031403;28;20066;-83
2022/06/24 05:38:56;;;;;;;32.83;30.52;;;;;;;23.02;100.00;100910.56;5038043;28;20058;-85
2022/06/24 05:41:29;;;;;;;30.23;28.42;;;;;;;22.95;100.00;100918.22;5026825;28;20046;-83
2022/06/24 05:44:22;;;;;;;28.55;26.40;;;;;;;23.23;100.00;100913.88;5027916;28;20441;-86
2022/06/24 05:47:25;;;;;;;28.98;27.08;;;;;;;23.05;100.00;100915.41;5037289;28;20120;-83
2022/06/24 05:50:10;;;;;;;28.50;26.90;;;;;;;22.91;100.00;100914.44;5031360;28;20053;-83
2022/06/24 05:55:19;;;;;;;26.45;24.80;;;;;;;23.45;100.00;100916.09;4969180;28;20053;-85
2022/06/24 06:00:38;;;;;;;27.50;25.85;;;;;;;23.68;100.00;100914.50;5035371;28;20057;-83
2022/06/24 06:03:12;;;;;;;26.23;24.73;;;;;;;23.34;100.00;100911.91;5026985;28;20053;-85
2022/06/24 06:05:43;;;;;;;26.90;25.00;;;;;;;23.61;100.00;100920.28;5028183;28;20466;-83
2022/06/24 06:08:12;;;;;;;27.05;25.52;;;;;;;23.74;100.00;100918.78;5027572;28;20068;-82
2022/06/24 06:10:50;;;;;;;26.73;25.13;;;;;;;23.79;100.00;100926.06;5038073;28;20452;-82
2022/06/24 06:13:17;;;;;;;28.30;25.95;;;;;;;23.82;100.00;100929.00;5035675;28;20046;-83
2022/06/24 06:15:53;;;;;;;28.08;26.08;;;;;;;23.89;100.00;100926.75;5036899;28;20046;-83
2022/06/24 06:18:32;;;;;;;28.63;26.60;;;;;;;23.34;100.00;100925.44;5035404;28;20049;-83
2022/06/24 06:21:02;;;;;;;30.90;28.58;;;;;;;24.06;100.00;100923.56;5023235;28;20058;-81
2022/06/24 06:23:41;;;;;;;30.77;28.88;;;;;;;24.35;100.00;100919.91;5022424;28;20057;-83
2022/06/24 06:26:22;;;;;;;29.67;28.00;;;;;;;24.62;100.00;100917.34;5034037;28;20478;-83
2022/06/24 06:28:59;;;;;;;;;;;;;;;;;;;;;
2022/06/24 06:31:26;;;;;;;29.73;28.15;;;;;;;25.01;100.00;100909.94;5038578;28;20133;-83
2022/06/24 06:33:53;;;;;;;28.58;26.98;;;;;;;24.95;100.00;100917.38;5030557;28;20050;-82
2022/06/24 06:36:28;;;;;;;30.38;28.17;;;;;;;24.89;100.00;100913.13;5037816;28;20049;-83
2022/06/24 06:38:55;;;;;;;29.90;27.85;;;;;;;24.92;100.00;100909.81;5031718;28;20106;-83
2022/06/24 06:41:22;;;;;;;29.42;27.83;;;;;;;25.12;100.00;100917.63;5037358;28;20115;-84
2022/06/24 06:43:53;;;;;;;28.83;27.13;;;;;;;25.26;100.00;100914.16;5033181;28;20030;-84
2022/06/24 06:46:30;;;;;;;29.02;27.45;;;;;;;25.11;100.00;100917.91;5024059;28;20056;-83
2022/06/24 06:49:02;;;;;;;30.38;28.80;;;;;;;24.98;100.00;100911.34;5029291;28;20064;-83
2022/06/24 06:51:34;;;;;;;31.05;29.45;;;;;;;25.01;100.00;100897.16;5028864;28;20046;-82
2022/06/24 06:54:03;;;;;;;33.75;31.85;;;;;;;25.35;100.00;100921.31;5026467;28;20092;-83
2022/06/24 06:56:42;;;;;;;;;;;;;;;;;;;;;
2022/06/24 06:59:10;;;;;;;30.23;28.42;;;;;;;25.24;100.00;100916.38;5037321;28;20105;-82
2022/06/24 07:01:39;;;;;;;28.40;26.52;;;;;;;25.56;100.00;100905.41;5036784;28;20061;-83
2022/06/24 07:04:12;;;;;;;30.90;29.00;;;;;;;25.54;100.00;100902.22;5035932;28;20072;-83
2022/06/24 07:06:46;;;;;;;28.58;27.13;;;;;;;25.80;98.89;100901.69;5027201;28;20073;-82
2022/06/24 07:09:18;;;;;;;28.25;26.60;;;;;;;26.17;97.64;100897.09;5023565;28;20144;-82
2022/06/24 07:11:45;;;;;;;29.92;28.40;;;;;;;26.30;100.00;100900.94;5038733;28;20100;-83
2022/06/24 07:14:13;;;;;;;27.70;25.70;;;;;;;25.93;91.29;100900.91;5029215;28;20045;-84
2022/06/24 07:16:48;;;;;;;28.02;26.45;;;;;;;25.89;96.51;100901.81;5032429;28;20052;-82
2022/06/24 07:19:19;;;;;;;27.92;26.13;;;;;;;25.97;97.30;100901.09;5034783;28;20417;-84
2022/06/24 07:21:47;;;;;;;26.42;24.83;;;;;;;26.20;100.00;100904.66;5024156;28;20053;-83
2022/06/24 07:24:34;;;;;;;25.90;24.38;;;;;;;25.83;89.86;100894.88;5028221;28;20042;-83
2022/06/24 07:27:08;;;;;;;27.17;25.67;;;;;;;25.85;100.00;100895.38;5030001;28;20045;-83
2022/06/24 07:29:50;;;;;;;28.25;26.67;;;;;;;26.07;93.20;100889.19;5030194;28;20390;-83
2022/06/24 07:32:35;;;;;;;;;;;;;;;;;;;;;
2022/06/24 07:35:12;;;;;;;29.70;28.20;;;;;;;26.50;91.38;100893.09;5024831;28;20125;-83
2022/06/24 07:37:46;;;;;;;28.30;26.73;;;;;;;26.22;91.29;100899.72;5039397;28;20478;-83
2022/06/24 07:40:20;;;;;;;28.45;27.05;;;;;;;26.80;93.97;100881.78;5025785;28;20065;-84
2022/06/24 07:42:48;;;;;;;28.50;26.92;;;;;;;26.76;85.56;100895.22;5034830;28;20106;-83
2022/06/24 07:45:29;;;;;;;27.85;26.35;;;;;;;26.76;84.77;100892.50;5027725;28;20053;-83
2022/06/24 07:48:14;;;;;;;28.02;26.63;;;;;;;26.91;95.32;100889.38;5032162;28;20049;-84
2022/06/24 07:50:50;;;;;;;30.98;29.25;;;;;;;26.96;83.15;100891.19;5026993;28;20045;-83
2022/06/24 07:53:37;;;;;;;28.83;27.23;;;;;;;26.70;93.63;100886.34;5025912;28;20132;-82
2022/06/24 07:59:19;;;;;;;28.92;27.48;;;;;;;26.80;89.85;100882.56;5035061;28;20056;-85
2022/06/24 08:01:50;;;;;;;29.65;27.85;;;;;;;27.07;93.64;100886.25;5027610;28;20096;-83
2022/06/24 08:04:19;;;;;;;29.63;27.90;;;;;;;26.61;79.00;100880.03;5038739;28;20060;-84
2022/06/24 08:06:49;;;;;;;28.92;27.08;;;;;;;26.37;91.72;100869.44;5033561;28;20115;-84
2022/06/24 08:09:30;;;;;;;28.35;26.38;;;;;;;26.94;99.05;100866.94;5028343;28;20542;-84
2022/06/24 08:12:09;;;;;;;28.60;26.77;;;;;;;27.60;81.91;100864.38;5023705;28;20125;-84
2022/06/24 08:17:28;;;;;;;29.90;28.02;;;;;;;28.04;84.30;100880.84;5033956;28;20588;-84
2022/06/24 08:20:05;;;;;;;31.30;29.02;;;;;;;27.50;67.89;100875.56;5025146;28;20105;-83
2022/06/24 08:22:37;;;;;;;31.75;29.52;;;;;;;26.80;79.46;100879.03;5026808;28;20132;-83
2022/06/24 08:25:15;;;;;;;31.70;29.50;;;;;;;27.13;73.73;100865.91;5023358;28;20052;-82
2022/06/24 08:27:47;;;;;;;30.52;28.60;;;;;;;27.58;76.98;100871.25;5038646;28;20049;-82
2022/06/24 08:30:40;;;;;;;31.08;29.10;;;;;;;27.52;76.34;100872.53;5031179;28;20143;-84
2022/06/24 08:33:13;;;;;;;30.40;28.60;;;;;;;27.05;68.85;100878.41;5028258;28;20053;-85
2022/06/24 08:35:48;;;;;;;29.98;27.98;;;;;;;27.66;83.37;100869.66;5031585;28;20049;-84
2022/06/24 08:38:17;;;;;;;29.90;28.20;;;;;;;27.76;76.61;100867.44;5025141;28;20046;-86
2022/06/24 08:41:06;;;;;;;31.73;29.73;;;;;;;28.21;74.67;100872.66;5024900;28;20126;-84
2022/06/24 08:43:48;;;;;;;29.52;27.67;;;;;;;28.74;80.19;100870.69;5029275;28;20084;-83
2022/06/24 08:46:25;;;;;;;29.40;27.80;;;;;;;28.60;73.72;100872.84;5027423;28;20393;-84
2022/06/24 08:48:59;;;;;;;29.90;28.15;;;;;;;28.43;70.68;100870.91;5025429;28;20058;-84
2022/06/24 08:51:33;;;;;;;31.88;30.08;;;;;;;28.28;60.22;100870.25;5023757;28;20437;-84
2022/06/24 08:54:12;;;;;;;30.77;28.75;;;;;;;28.52;66.40;100877.97;5030706;28;20049;-85
2022/06/24 08:56:48;;;;;;;30.13;28.38;;;;;;;28.86;64.76;100864.56;5038538;28;20052;-84
2022/06/24 08:59:17;;;;;;;31.05;29.35;;;;;;;28.38;60.80;100865.56;5026735;28;20149;-82
2022/06/24 09:01:55;;;;;;;30.58;28.77;;;;;;;27.88;55.89;100869.59;5028389;28;20041;-82
2022/06/24 09:04:26;;;;;;;29.58;27.30;;;;;;;27.74;68.55;100866.16;5024181;28;20046;-83
2022/06/24 09:07:04;;;;;;;29.85;28.15;;;;;;;28.18;65.82;100870.56;5032103;28;20050;-85
2022/06/24 09:09:31;;;;;;;35.17;32.88;;;;;;;28.40;69.80;100871.53;5032762;28;20054;-82
2022/06/24 09:12:08;;;;;;;30.15;28.33;;;;;;;28.30;67.72;100864.47;5026681;28;20061;-83
2022/06/24 09:14:50;;;;;;;32.72;30.70;;;;;;;28.11;60.56;100856.63;5028970;28;20061;-85
2022/06/24 09:17:29;;;;;;;28.27;26.52;;;;;;;28.33;60.73;100857.56;5041696;28;20053;-84
2022/06/24 09:20:13;;;;;;;29.80;28.02;;;;;;;29.41;65.05;100861.81;5040318;28;20064;-83
2022/06/24 09:22:49;;;;;;;28.65;26.95;;;;;;;29.47;60.36;100861.63;5031827;28;20049;-83
2022/06/24 09:25:48;;;;;;;30.77;28.88;;;;;;;28.59;61.92;100861.09;5043680;28;20041;-83
2022/06/24 09:28:34;;;;;;;29.50;27.45;;;;;;;28.70;56.00;100861.56;5031911;28;20050;-83
2022/06/24 09:31:10;;;;;;;29.25;27.45;;;;;;;28.50;71.05;100861.13;5031308;28;20076;-83
2022/06/24 09:33:42;;;;;;;29.40;27.45;;;;;;;29.15;63.65;100861.94;5041237;28;20049;-82
2022/06/24 09:36:28;;;;;;;29.20;27.45;;;;;;;29.60;60.00;100866.06;5034368;28;20077;-82
2022/06/24 09:39:07;;;;;;;29.40;27.38;;;;;;;29.53;60.11;100858.34;5033871;28;20524;-83
2022/06/24 09:41:55;;;;;;;29.80;28.00;;;;;;;29.83;58.55;100866.59;5028260;28;20060;-83
2022/06/24 09:44:47;;;;;;;30.30;28.40;;;;;;;29.13;56.48;100857.91;5031065;28;20057;-85
2022/06/24 09:47:41;;;;;;;29.08;27.13;;;;;;;28.69;57.17;100851.75;5033779;28;20057;-84
2022/06/24 09:50:16;;;;;;;26.27;24.50;;;;;;;28.69;54.42;100854.50;5029664;28;20064;-83
2022/06/24 09:52:46;;;;;;;31.02;28.83;;;;;;;28.43;66.08;100852.59;5040179;28;20047;-83
2022/06/24 09:55:13;;;;;;;30.65;28.92;;;;;;;28.05;69.53;100858.69;5041026;28;20470;-84
2022/06/24 09:57:40;;;;;;;30.17;28.05;;;;;;;29.13;65.61;100855.19;5032766;28;20064;-83
2022/06/24 10:03:04;;;;;;;29.48;27.20;;;;;;;29.44;60.03;100858.44;5027211;28;20556;-83
2022/06/24 10:05:44;;;;;;;30.67;28.77;;;;;;;28.88;53.05;100849.44;5034630;28;20054;-84
2022/06/24 10:08:21;;;;;;;30.67;28.58;;;;;;;30.02;53.91;100857.94;5029104;28;20053;-84
2022/06/24 10:10:52;;;;;;;30.20;27.85;;;;;;;29.63;54.20;100844.34;5038947;28;20046;-84
2022/06/24 10:13:39;;;;;;;31.45;29.35;;;;;;;29.21;50.41;100848.88;5043581;28;20045;-84
2022/06/24 10:16:21;;;;;;;28.90;26.80;;;;;;;29.21;52.69;100846.94;5040061;28;20049;-84
2022/06/24 10:19:01;;;;;;;30.00;28.05;;;;;;;28.33;56.25;100841.97;5038676;28;20076;-84
2022/06/24 10:21:43;;;;;;;30.50;28.60;;;;;;;29.29;53.30;100836.28;5030743;28;20096;-84
2022/06/24 10:24:43;;;;;;;28.67;26.55;;;;;;;29.67;48.34;100836.28;5029694;28;20068;-84
2022/06/24 10:27:24;;;;;;;;;;;;;;;;;;;;;
2022/06/24 10:29:56;;;;;;;30.75;28.73;;;;;;;30.06;51.99;100839.69;5037097;28;20045;-82
2022/06/24 10:33:26;;;;;;;31.25;29.50;;;;;;;30.26;46.91;100838.09;5033435;28;20046;-83
2022/06/24 10:36:05;;;;;;;30.45;28.85;;;;;;;29.80;49.08;100842.63;5038934;28;20049;-84
2022/06/24 10:38:46;;;;;;;31.25;29.52;;;;;;;29.71;50.47;100839.13;5035290;28;20046;-84
2022/06/24 10:41:39;;;;;;;33.80;31.45;;;;;;;29.53;49.40;100830.19;5036209;28;20072;-83
2022/06/24 10:47:52;;;;;;;34.10;31.95;;;;;;;28.95;49.85;100824.34;5035997;28;20058;-84
2022/06/24 10:50:22;;;;;;;33.22;31.30;;;;;;;29.15;52.23;100826.38;5033631;28;20093;-84
2022/06/24 10:53:06;;;;;;;35.08;32.97;;;;;;;29.87;57.31;100827.28;5032227;28;20085;-83
2022/06/24 10:55:45;;;;;;;32.95;31.00;;;;;;;29.15;55.12;100817.38;5035763;28;20050;-82
2022/06/24 10:58:22;;;;;;;32.72;30.83;;;;;;;30.00;56.52;100821.88;5038666;28;20049;-83
2022/06/24 11:01:00;;;;;;;35.70;33.83;;;;;;;29.94;54.38;100820.47;5037022;28;20531;-82
2022/06/24 11:03:50;;;;;;;33.03;31.00;;;;;;;29.82;50.68;100830.19;5034670;28;20058;-84
2022/06/24 11:06:26;;;;;;;34.80;32.80;;;;;;;29.29;52.40;100828.09;5035819;28;20049;-84
2022/06/24 11:08:55;;;;;;;32.95;31.05;;;;;;;29.86;56.02;100820.19;5032615;28;20053;-83
2022/06/24 11:11:41;;;;;;;35.33;33.22;;;;;;;30.39;49.69;100817.03;5031294;28;20100;-85
2022/06/24 11:14:34;;;;;;;34.47;32.10;;;;;;;28.68;60.28;100817.34;5043903;28;20045;-84
2022/06/24 11:17:12;;;;;;;31.80;29.48;;;;;;;30.02;53.69;100811.38;5025208;28;20485;-83
2022/06/24 11:19:56;;;;;;;34.55;32.10;;;;;;;31.03;50.65;100811.00;5036505;28;20480;-83
2022/06/24 11:22:30;;;;;;;34.58;32.58;;;;;;;30.27;45.26;100826.00;5038679;28;20049;-82
2022/06/24 11:25:06;;;;;;;33.40;31.10;;;;;;;29.85;50.51;100817.78;5024722;28;20048;-83
2022/06/24 11:27:38;;;;;;;39.08;36.60;;;;;;;29.62;46.66;100820.88;5031865;28;20115;-82
2022/06/24 11:30:07;;;;;;;35.15;32.92;;;;;;;28.90;50.95;100821.81;5024651;28;20482;-82
2022/06/24 11:32:55;;;;;;;38.15;35.35;;;;;;;28.48;50.56;100813.41;5033017;28;20066;-83
2022/06/24 11:35:26;;;;;;;37.15;34.72;;;;;;;28.57;56.57;100810.66;5030686;28;20050;-83
2022/06/24 11:38:19;;;;;;;49.03;45.67;;;;;;;28.12;64.92;100816.47;5032117;28;20049;-82
2022/06/24 11:40:51;;;;;;;36.90;34.60;;;;;;;28.79;61.77;100809.63;5034943;28;20038;-83
2022/06/24 11:43:40;;;;;;;39.00;35.97;;;;;;;28.44;63.69;100806.97;5029309;28;20125;-84
2022/06/24 11:46:13;;;;;;;34.90;31.92;;;;;;;28.81;64.11;100807.38;5023578;28;20056;-82
2022/06/24 11:49:11;;;;;;;29.55;27.45;;;;;;;28.96;63.82;100802.16;5034988;28;20060;-84
2022/06/24 11:51:49;;;;;;;31.55;29.60;;;;;;;29.96;57.01;100799.84;5016376;28;20081;-84
2022/06/24 11:54:24;;;;;;;30.05;27.95;;;;;;;28.18;70.02;100801.53;5040726;28;20117;-82
2022/06/24 11:57:02;;;;;;;33.80;31.70;;;;;;;28.50;60.32;100787.38;5034983;28;20220;-82
2022/06/24 11:59:30;;;;;;;33.50;31.60;;;;;;;30.59;49.01;100786.00;5034065;28;20050;-83
2022/06/24 12:02:02;;;;;;;32.88;30.67;;;;;;;29.04;45.46;100797.81;5030965;28;20061;-83
2022/06/24 12:04:29;;;;;;;30.90;29.00;;;;;;;28.81;54.54;100801.91;5027043;28;20497;-83
2022/06/24 12:07:14;;;;;;;30.65;28.55;;;;;;;28.47;51.14;100792.66;5032080;28;20045;-82
2022/06/24 12:09:47;;;;;;;32.67;30.58;;;;;;;29.17;47.10;100793.25;5029243;28;20444;-82
2022/06/24 12:12:22;;;;;;;34.35;32.20;;;;;;;29.43;55.66;100796.63;5032316;28;20049;-83
2022/06/24 12:14:58;;;;;;;33.08;30.88;;;;;;;28.43;49.45;100792.50;5029286;28;20050;-82
2022/06/24 12:17:25;;;;;;;32.72;30.67;;;;;;;28.80;60.51;100798.34;5028820;28;20065;-83
2022/06/24 12:20:06;;;;;;;34.63;32.30;;;;;;;30.40;52.21;100786.56;5034919;28;20077;-84
2022/06/24 12:22:39;;;;;;;34.38;31.88;;;;;;;29.15;43.70;100788.09;5028128;28;20077;-83
2022/06/24 12:25:16;;;;;;;36.00;33.60;;;;;;;30.04;52.93;100785.25;5029123;28;20457;-84